Time;durP1;ratioP1;P1;durP2;ratioP2;P2;SDS_P1;SDS_P2;PMS_P1;PMS_P2;Temp;Humidity;BMP_temperature;BMP_pressure;BME280_temperature;BME280_humidity;BME280_pressure;Samples;Min_cycle;Max_cycle;Signal;HPM_P1;HPM_P2
2021/05/04 00:00:59;;;;;;;3.00;1.50;;;;;;;;;;2089639;28;20029;-72
2021/05/04 00:02:00;;;;;;;4.68;1.90;;;;;;;;;;2089284;28;20040;-72
2021/05/04 00:03:00;;;;;;;3.45;1.20;;;;;;;;;;2089475;28;20079;-74
2021/05/04 00:04:00;;;;;;;3.28;1.30;;;;;;;;;;2089709;28;20710;-73
2021/05/04 00:05:01;;;;;;;3.20;1.55;;;;;;;;;;2088533;28;20041;-72
2021/05/04 00:06:02;;;;;;;3.03;1.20;;;;;;;;;;2088831;28;20471;-73
2021/05/04 00:07:02;;;;;;;2.92;1.50;;;;;;;;;;2097124;28;20052;-76
2021/05/04 00:08:02;;;;;;;2.25;1.20;;;;;;;;;;2097351;28;20064;-76
2021/05/04 00:09:04;;;;;;;4.13;1.67;;;;;;;;;;2084556;28;20403;-71
2021/05/04 00:10:04;;;;;;;4.20;1.48;;;;;;;;;;2089713;28;20487;-72
2021/05/04 00:11:05;;;;;;;2.92;1.40;;;;;;;;;;2089565;28;20052;-72
2021/05/04 00:12:05;;;;;;;3.03;1.42;;;;;;;;;;2089678;28;20483;-75
2021/05/04 00:13:05;;;;;;;3.42;1.60;;;;;;;;;;2089174;28;20108;-75
2021/05/04 00:14:06;;;;;;;3.38;1.58;;;;;;;;;;2089615;28;20025;-75
2021/05/04 00:15:07;;;;;;;2.97;1.45;;;;;;;;;;2089501;28;20025;-74
2021/05/04 00:16:07;;;;;;;3.17;1.20;;;;;;;;;;2089489;28;20047;-74
2021/05/04 00:17:08;;;;;;;2.55;1.30;;;;;;;;;;2089482;28;20051;-74
2021/05/04 00:18:08;;;;;;;1.85;1.15;;;;;;;;;;2089700;28;20040;-73
2021/05/04 00:19:08;;;;;;;2.45;1.08;;;;;;;;;;2089479;28;20108;-73
2021/05/04 00:20:09;;;;;;;3.15;1.20;;;;;;;;;;2088924;28;20423;-73
2021/05/04 00:21:09;;;;;;;2.30;1.25;;;;;;;;;;2089397;28;20060;-73
2021/05/04 00:22:09;;;;;;;2.55;1.35;;;;;;;;;;2089549;28;20026;-72
2021/05/04 00:23:10;;;;;;;4.20;1.20;;;;;;;;;;2089480;28;20389;-73
2021/05/04 00:24:10;;;;;;;3.10;1.35;;;;;;;;;;2089588;28;20021;-73
2021/05/04 00:25:11;;;;;;;2.88;1.15;;;;;;;;;;2089254;28;20025;-72
2021/05/04 00:26:11;;;;;;;2.70;1.20;;;;;;;;;;2089448;28;20052;-73
2021/05/04 00:27:12;;;;;;;2.47;1.40;;;;;;;;;;2089363;28;20479;-73
2021/05/04 00:28:12;;;;;;;3.40;1.30;;;;;;;;;;2089300;28;20025;-73
2021/05/04 00:29:12;;;;;;;3.10;1.33;;;;;;;;;;2089327;28;20036;-72
2021/05/04 00:30:13;;;;;;;2.47;1.10;;;;;;;;;;2089443;28;20025;-73
2021/05/04 00:31:14;;;;;;;2.97;1.60;;;;;;;;;;2089467;28;20435;-72
2021/05/04 00:32:14;;;;;;;3.55;1.42;;;;;;;;;;2089420;28;20403;-73
2021/05/04 00:33:15;;;;;;;2.83;1.20;;;;;;;;;;2089412;28;20111;-73
2021/05/04 00:34:15;;;;;;;2.70;1.17;;;;;;;;;;2089280;28;20029;-73
2021/05/04 00:35:15;;;;;;;2.92;1.30;;;;;;;;;;2096669;28;20060;-73
2021/05/04 00:36:15;;;;;;;2.60;1.30;;;;;;;;;;2096937;28;20557;-73
2021/05/04 00:37:16;;;;;;;3.28;1.33;;;;;;;;;;2089465;28;20061;-73
2021/05/04 00:38:17;;;;;;;2.80;1.50;;;;;;;;;;2089214;28;20408;-73
2021/05/04 00:39:18;;;;;;;2.95;1.20;;;;;;;;;;2088536;28;20531;-74
2021/05/04 00:40:18;;;;;;;2.10;1.15;;;;;;;;;;2088748;28;20142;-72
2021/05/04 00:41:18;;;;;;;2.72;1.20;;;;;;;;;;2089373;28;20036;-73
2021/05/04 00:42:23;;;;;;;2.83;1.10;;;;;;;;;;2089066;28;20486;-73
2021/05/04 00:43:24;;;;;;;3.22;1.25;;;;;;;;;;2089390;28;20578;-73
2021/05/04 00:44:25;;;;;;;2.10;0.98;;;;;;;;;;2089347;28;20040;-74
2021/05/04 00:45:25;;;;;;;3.35;1.15;;;;;;;;;;2089362;28;20159;-73
2021/05/04 00:46:25;;;;;;;2.50;1.02;;;;;;;;;;2089174;28;20476;-72
2021/05/04 00:47:26;;;;;;;2.70;1.20;;;;;;;;;;2089307;28;20094;-73
2021/05/04 00:48:28;;;;;;;1.88;1.20;;;;;;;;;;2089336;28;20476;-72
2021/05/04 00:49:28;;;;;;;2.42;1.10;;;;;;;;;;2088820;28;20021;-72
2021/05/04 00:50:28;;;;;;;3.78;1.10;;;;;;;;;;2089250;28;20120;-72
2021/05/04 00:51:29;;;;;;;2.13;1.17;;;;;;;;;;2082705;28;20021;-73
2021/05/04 00:52:29;;;;;;;2.85;1.10;;;;;;;;;;2089298;28;20036;-73
2021/05/04 00:53:30;;;;;;;2.60;1.13;;;;;;;;;;2089273;28;20032;-73
2021/05/04 00:54:30;;;;;;;3.28;1.30;;;;;;;;;;2089237;28;20032;-73
2021/05/04 00:55:33;;;;;;;2.03;1.00;;;;;;;;;;2089210;28;20075;-73
2021/05/04 00:56:34;;;;;;;2.72;1.10;;;;;;;;;;2089154;28;20037;-72
2021/05/04 00:57:35;;;;;;;2.45;1.02;;;;;;;;;;2088926;28;20164;-73
2021/05/04 00:58:36;;;;;;;2.85;0.98;;;;;;;;;;2089204;28;20055;-72
2021/05/04 00:59:36;;;;;;;3.53;1.00;;;;;;;;;;2089101;28;20487;-73
2021/05/04 01:00:37;;;;;;;3.25;1.20;;;;;;;;;;2089152;28;20029;-72
2021/05/04 01:01:38;;;;;;;2.05;1.00;;;;;;;;;;2089227;28;20036;-72
2021/05/04 01:02:40;;;;;;;2.08;0.93;;;;;;;;;;2089191;28;20045;-72
2021/05/04 01:03:40;;;;;;;2.80;1.20;;;;;;;;;;2089224;28;20063;-72
2021/05/04 01:04:41;;;;;;;3.58;0.90;;;;;;;;;;2088692;28;20476;-73
2021/05/04 01:05:41;;;;;;;2.42;1.15;;;;;;;;;;2089262;28;20055;-72
2021/05/04 01:06:42;;;;;;;2.08;0.98;;;;;;;;;;2089222;28;20029;-73
2021/05/04 01:07:42;;;;;;;3.65;1.15;;;;;;;;;;2089121;28;20029;-73
2021/05/04 01:08:42;;;;;;;2.65;1.05;;;;;;;;;;2089094;28;20399;-72
2021/05/04 01:09:45;;;;;;;2.00;0.90;;;;;;;;;;2089121;28;20025;-73
2021/05/04 01:10:45;;;;;;;2.50;1.08;;;;;;;;;;2089386;28;20025;-74
2021/05/04 01:11:46;;;;;;;2.45;1.10;;;;;;;;;;2088845;28;20112;-74
2021/05/04 01:12:47;;;;;;;3.35;1.00;;;;;;;;;;2089178;28;20103;-73
2021/05/04 01:13:51;;;;;;;1.98;0.90;;;;;;;;;;2088560;28;20420;-72
2021/05/04 01:14:51;;;;;;;2.55;1.13;;;;;;;;;;2089029;28;20069;-72
2021/05/04 01:15:52;;;;;;;2.17;1.08;;;;;;;;;;2089115;28;20048;-73
2021/05/04 01:16:55;;;;;;;2.08;1.27;;;;;;;;;;2089227;28;20020;-72
2021/05/04 01:17:56;;;;;;;3.92;0.80;;;;;;;;;;2089050;28;20484;-73
2021/05/04 01:18:56;;;;;;;1.85;1.00;;;;;;;;;;2089241;28;20017;-74
2021/05/04 01:19:57;;;;;;;3.03;1.10;;;;;;;;;;2088377;28;20068;-74
2021/05/04 01:20:57;;;;;;;2.30;0.85;;;;;;;;;;2089180;28;20033;-75
2021/05/04 01:21:57;;;;;;;1.98;0.82;;;;;;;;;;2089028;28;20102;-74
2021/05/04 01:22:58;;;;;;;1.23;0.60;;;;;;;;;;2089259;28;20440;-74
2021/05/04 01:23:58;;;;;;;2.00;0.80;;;;;;;;;;2089044;28;20040;-73
2021/05/04 01:24:58;;;;;;;3.33;1.10;;;;;;;;;;2089170;28;20032;-73
2021/05/04 01:25:59;;;;;;;3.10;0.80;;;;;;;;;;2089076;28;20419;-74
2021/05/04 01:26:59;;;;;;;2.65;1.00;;;;;;;;;;2088806;28;20036;-74
2021/05/04 01:27:59;;;;;;;2.35;0.90;;;;;;;;;;2089088;28;20484;-74
2021/05/04 01:29:00;;;;;;;1.83;0.90;;;;;;;;;;2089213;28;20480;-74
2021/05/04 01:30:00;;;;;;;2.10;0.77;;;;;;;;;;2088928;28;20049;-75
2021/05/04 01:31:00;;;;;;;2.50;1.02;;;;;;;;;;2089189;28;20017;-74
2021/05/04 01:32:00;;;;;;;2.78;1.10;;;;;;;;;;2089088;28;20025;-72
2021/05/04 01:33:01;;;;;;;1.60;0.95;;;;;;;;;;2089245;28;20143;-74
2021/05/04 01:34:01;;;;;;;1.98;0.88;;;;;;;;;;2088760;28;20037;-73
2021/05/04 01:35:05;;;;;;;5.95;1.30;;;;;;;;;;2089027;28;20025;-74
2021/05/04 01:36:05;;;;;;;2.22;1.10;;;;;;;;;;2089085;28;20033;-72
2021/05/04 01:37:06;;;;;;;5.10;0.90;;;;;;;;;;2089044;28;20086;-72
2021/05/04 01:38:06;;;;;;;2.67;1.20;;;;;;;;;;2088871;28;20033;-72
2021/05/04 01:39:07;;;;;;;2.10;0.82;;;;;;;;;;2089047;28;20043;-73
2021/05/04 01:40:08;;;;;;;2.97;1.30;;;;;;;;;;2089075;28;20041;-73
2021/05/04 01:41:08;;;;;;;1.83;0.90;;;;;;;;;;2089134;28;20025;-73
2021/05/04 01:42:08;;;;;;;1.92;0.88;;;;;;;;;;2088872;28;20472;-73
2021/05/04 01:43:09;;;;;;;2.10;1.00;;;;;;;;;;2088839;28;20021;-71
2021/05/04 01:44:09;;;;;;;4.05;1.10;;;;;;;;;;2089111;28;20118;-71
2021/05/04 01:45:10;;;;;;;2.90;0.82;;;;;;;;;;2089096;28;20052;-71
2021/05/04 01:46:10;;;;;;;2.05;1.20;;;;;;;;;;2096830;28;20503;-74
2021/05/04 01:47:11;;;;;;;2.17;0.93;;;;;;;;;;2096556;28;20407;-74
2021/05/04 01:48:11;;;;;;;1.73;1.02;;;;;;;;;;2088442;28;20044;-74
2021/05/04 01:49:12;;;;;;;1.67;0.77;;;;;;;;;;2087871;28;20120;-74
2021/05/04 01:50:13;;;;;;;2.00;0.90;;;;;;;;;;2089080;28;20044;-73
2021/05/04 01:51:13;;;;;;;2.13;1.00;;;;;;;;;;2088928;28;20033;-73
2021/05/04 01:52:13;;;;;;;2.03;1.08;;;;;;;;;;2089215;28;20124;-72
2021/05/04 01:53:14;;;;;;;2.05;1.02;;;;;;;;;;2088980;28;20031;-73
2021/05/04 01:54:14;;;;;;;1.75;1.10;;;;;;;;;;2089164;28;20033;-72
2021/05/04 01:55:14;;;;;;;1.25;0.80;;;;;;;;;;2088924;28;20537;-72
2021/05/04 01:56:15;;;;;;;1.80;1.10;;;;;;;;;;2088754;28;20028;-71
2021/05/04 01:57:15;;;;;;;1.77;0.80;;;;;;;;;;2088910;28;20433;-71
2021/05/04 01:58:17;;;;;;;1.83;0.80;;;;;;;;;;2089072;28;20487;-72
2021/05/04 01:59:17;;;;;;;2.78;1.00;;;;;;;;;;2088934;28;20468;-72
2021/05/04 02:00:18;;;;;;;2.42;0.95;;;;;;;;;;2089051;28;20056;-71
2021/05/04 02:01:18;;;;;;;2.25;1.00;;;;;;;;;;2088842;28;20025;-72
2021/05/04 02:02:19;;;;;;;1.90;1.10;;;;;;;;;;2089065;28;20059;-72
2021/05/04 02:03:20;;;;;;;3.00;1.25;;;;;;;;;;2088942;28;20094;-72
2021/05/04 02:04:21;;;;;;;2.58;1.17;;;;;;;;;;2088520;28;20116;-72
2021/05/04 02:05:21;;;;;;;2.80;1.02;;;;;;;;;;2089090;28;20029;-71
2021/05/04 02:06:22;;;;;;;1.52;0.93;;;;;;;;;;2089161;28;20029;-71
2021/05/04 02:07:22;;;;;;;1.40;0.90;;;;;;;;;;2088916;28;20083;-72
2021/05/04 02:08:22;;;;;;;1.67;0.80;;;;;;;;;;2088953;28;20048;-72
2021/05/04 02:09:24;;;;;;;1.95;0.88;;;;;;;;;;2088873;28;20029;-72
2021/05/04 02:10:24;;;;;;;3.58;0.90;;;;;;;;;;2096665;28;20083;-72
2021/05/04 02:11:24;;;;;;;2.60;1.00;;;;;;;;;;2096358;28;20056;-72
2021/05/04 02:12:25;;;;;;;1.23;0.73;;;;;;;;;;2089052;28;20040;-71
2021/05/04 02:13:25;;;;;;;1.38;0.80;;;;;;;;;;2088152;28;20523;-71
2021/05/04 02:14:26;;;;;;;3.22;1.30;;;;;;;;;;2088380;28;20035;-71
2021/05/04 02:15:26;;;;;;;4.10;0.95;;;;;;;;;;2096522;28;20036;-71
2021/05/04 02:16:27;;;;;;;1.60;0.90;;;;;;;;;;2096704;28;20035;-71
2021/05/04 02:17:27;;;;;;;1.60;0.90;;;;;;;;;;2089096;28;20036;-71
2021/05/04 02:18:28;;;;;;;1.80;0.90;;;;;;;;;;2088468;28;20495;-71
2021/05/04 02:19:28;;;;;;;1.70;1.00;;;;;;;;;;2088639;28;20103;-71
2021/05/04 02:20:29;;;;;;;1.33;0.90;;;;;;;;;;2088922;28;20460;-71
2021/05/04 02:21:29;;;;;;;2.25;0.98;;;;;;;;;;2088937;28;20561;-71
2021/05/04 02:22:29;;;;;;;2.53;1.00;;;;;;;;;;2088854;28;20116;-71
2021/05/04 02:23:31;;;;;;;2.22;0.90;;;;;;;;;;2088830;28;20058;-76
2021/05/04 02:24:31;;;;;;;2.00;0.85;;;;;;;;;;2088963;28;20037;-71
2021/05/04 02:25:31;;;;;;;2.13;0.77;;;;;;;;;;2089615;28;20061;-72
2021/05/04 02:26:32;;;;;;;2.00;0.93;;;;;;;;;;2089984;28;20029;-71
2021/05/04 02:27:33;;;;;;;1.77;1.00;;;;;;;;;;2090469;28;20037;-72
2021/05/04 02:28:33;;;;;;;1.80;0.85;;;;;;;;;;2090336;28;20048;-76
2021/05/04 02:29:34;;;;;;;2.85;0.90;;;;;;;;;;2090439;28;20170;-72
2021/05/04 02:30:34;;;;;;;1.98;1.00;;;;;;;;;;2090395;28;20082;-71
2021/05/04 02:31:35;;;;;;;2.95;0.80;;;;;;;;;;2090333;28;20104;-73
2021/05/04 02:32:35;;;;;;;2.17;0.80;;;;;;;;;;2090429;28;20083;-72
2021/05/04 02:33:36;;;;;;;1.70;0.90;;;;;;;;;;2090068;28;20388;-72
2021/05/04 02:34:36;;;;;;;1.33;0.82;;;;;;;;;;2090146;28;20055;-71
2021/05/04 02:35:37;;;;;;;1.08;0.52;;;;;;;;;;2090191;28;20094;-75
2021/05/04 02:36:37;;;;;;;2.10;1.00;;;;;;;;;;2090308;28;20099;-74
2021/05/04 02:37:37;;;;;;;1.75;0.85;;;;;;;;;;2090285;28;20048;-75
2021/05/04 02:38:38;;;;;;;1.67;0.75;;;;;;;;;;2090259;28;20095;-76
2021/05/04 02:39:39;;;;;;;1.63;0.70;;;;;;;;;;2090222;28;20065;-72
2021/05/04 02:40:39;;;;;;;0.77;0.60;;;;;;;;;;2090009;28;20033;-72
2021/05/04 02:41:39;;;;;;;1.67;0.68;;;;;;;;;;2090406;28;20383;-72
2021/05/04 02:42:40;;;;;;;1.27;0.70;;;;;;;;;;2090297;28;20039;-73
2021/05/04 02:43:40;;;;;;;2.03;0.77;;;;;;;;;;2090330;28;20021;-73
2021/05/04 02:44:40;;;;;;;1.13;0.50;;;;;;;;;;2090319;28;20029;-74
2021/05/04 02:45:41;;;;;;;1.67;0.70;;;;;;;;;;2097767;28;20479;-73
2021/05/04 02:46:41;;;;;;;1.88;1.00;;;;;;;;;;2097952;28;20024;-73
2021/05/04 02:47:41;;;;;;;2.05;0.70;;;;;;;;;;2089497;28;20111;-73
2021/05/04 02:48:43;;;;;;;2.00;0.90;;;;;;;;;;2089325;28;20040;-73
2021/05/04 02:49:43;;;;;;;2.13;0.70;;;;;;;;;;2089951;28;20535;-73
2021/05/04 02:50:44;;;;;;;1.50;0.63;;;;;;;;;;2090313;28;20055;-74
2021/05/04 02:51:44;;;;;;;1.95;0.70;;;;;;;;;;2090122;28;20120;-73
2021/05/04 02:52:45;;;;;;;1.73;0.90;;;;;;;;;;2090289;28;20060;-74
2021/05/04 02:53:45;;;;;;;2.08;1.00;;;;;;;;;;2089955;28;20033;-73
2021/05/04 02:54:45;;;;;;;1.75;0.68;;;;;;;;;;2090272;28;20048;-72
2021/05/04 02:55:46;;;;;;;1.75;0.88;;;;;;;;;;2097475;28;20115;-73
2021/05/04 02:56:46;;;;;;;1.63;0.60;;;;;;;;;;2097904;28;20127;-74
2021/05/04 02:57:47;;;;;;;1.60;0.70;;;;;;;;;;2090001;28;20037;-72
2021/05/04 02:58:47;;;;;;;1.27;0.77;;;;;;;;;;2090153;28;20032;-72
2021/05/04 02:59:47;;;;;;;1.58;0.70;;;;;;;;;;2090009;28;20029;-72
2021/05/04 03:00:48;;;;;;;1.00;0.60;;;;;;;;;;2090273;28;20048;-73
2021/05/04 03:01:48;;;;;;;1.20;0.70;;;;;;;;;;2090087;28;20025;-74
2021/05/04 03:02:48;;;;;;;1.08;0.65;;;;;;;;;;2089718;28;20052;-74
2021/05/04 03:03:49;;;;;;;1.35;0.70;;;;;;;;;;2089412;28;20037;-74
2021/05/04 03:04:49;;;;;;;0.80;0.50;;;;;;;;;;2089254;28;20499;-75
2021/05/04 03:05:50;;;;;;;1.55;0.63;;;;;;;;;;2090057;28;20036;-75
2021/05/04 03:06:50;;;;;;;2.05;0.80;;;;;;;;;;2090079;28;20147;-75
2021/05/04 03:07:50;;;;;;;2.00;0.57;;;;;;;;;;2089945;28;20120;-75
2021/05/04 03:08:51;;;;;;;1.90;0.80;;;;;;;;;;2090179;28;20041;-75
2021/05/04 03:09:51;;;;;;;1.60;0.63;;;;;;;;;;2089995;28;20029;-74
2021/05/04 03:10:51;;;;;;;2.38;0.82;;;;;;;;;;2097344;28;20524;-74
2021/05/04 03:11:52;;;;;;;2.80;0.70;;;;;;;;;;2097661;28;20494;-75
2021/05/04 03:12:52;;;;;;;2.30;0.80;;;;;;;;;;2089360;28;20102;-75
2021/05/04 03:13:54;;;;;;;1.10;0.52;;;;;;;;;;2089424;28;20033;-75
2021/05/04 03:14:54;;;;;;;1.40;0.60;;;;;;;;;;2090116;28;20039;-75
2021/05/04 03:15:55;;;;;;;1.30;0.57;;;;;;;;;;2089946;28;20488;-75
2021/05/04 03:16:55;;;;;;;1.95;0.70;;;;;;;;;;2090010;28;20507;-74
2021/05/04 03:17:55;;;;;;;1.10;0.82;;;;;;;;;;2089808;28;20036;-74
2021/05/04 03:18:56;;;;;;;0.73;0.50;;;;;;;;;;2089988;28;20199;-72
2021/05/04 03:19:56;;;;;;;1.58;0.70;;;;;;;;;;2089065;28;20025;-72
2021/05/04 03:20:56;;;;;;;2.08;0.50;;;;;;;;;;2089305;28;20431;-71
2021/05/04 03:21:57;;;;;;;0.73;0.50;;;;;;;;;;2090034;28;20605;-73
2021/05/04 03:22:57;;;;;;;1.52;0.57;;;;;;;;;;2090049;28;20495;-73
2021/05/04 03:23:57;;;;;;;0.93;0.52;;;;;;;;;;2089293;28;20053;-74
2021/05/04 03:24:58;;;;;;;1.95;0.60;;;;;;;;;;2089033;28;20033;-74
2021/05/04 03:25:58;;;;;;;3.13;0.60;;;;;;;;;;2089905;28;20044;-73
2021/05/04 03:26:58;;;;;;;1.38;0.57;;;;;;;;;;2089966;28;20104;-74
2021/05/04 03:27:59;;;;;;;1.13;0.60;;;;;;;;;;2089970;28;20028;-74
2021/05/04 03:28:59;;;;;;;1.63;0.65;;;;;;;;;;2089784;28;20040;-73
2021/05/04 03:30:00;;;;;;;1.52;0.68;;;;;;;;;;2089790;28;20033;-73
2021/05/04 03:31:00;;;;;;;1.45;0.63;;;;;;;;;;2089237;28;20120;-73
2021/05/04 03:32:01;;;;;;;0.75;0.50;;;;;;;;;;2089329;28;20108;-76
2021/05/04 03:33:01;;;;;;;2.30;0.80;;;;;;;;;;2089623;28;20123;-76
2021/05/04 03:34:02;;;;;;;2.45;0.85;;;;;;;;;;2089781;28;20099;-76
2021/05/04 03:35:02;;;;;;;2.58;0.65;;;;;;;;;;2089697;28;20033;-75
2021/05/04 03:36:03;;;;;;;2.17;0.80;;;;;;;;;;2089875;28;20115;-73
2021/05/04 03:37:03;;;;;;;2.25;0.50;;;;;;;;;;2089113;28;20033;-72
2021/05/04 03:38:04;;;;;;;1.20;0.70;;;;;;;;;;2089786;28;20057;-72
2021/05/04 03:39:04;;;;;;;1.30;0.63;;;;;;;;;;2089746;28;20408;-72
2021/05/04 03:40:05;;;;;;;1.95;0.80;;;;;;;;;;2089498;28;20059;-72
2021/05/04 03:41:05;;;;;;;1.38;0.68;;;;;;;;;;2089761;28;20029;-72
2021/05/04 03:42:06;;;;;;;1.77;0.65;;;;;;;;;;2089860;28;20044;-72
2021/05/04 03:43:06;;;;;;;1.48;0.60;;;;;;;;;;2089663;28;20083;-72
2021/05/04 03:44:06;;;;;;;1.52;0.60;;;;;;;;;;2089892;28;20104;-71
2021/05/04 03:45:07;;;;;;;0.80;0.35;;;;;;;;;;2089740;28;20025;-72
2021/05/04 03:46:08;;;;;;;2.05;0.73;;;;;;;;;;2089807;28;20479;-72
2021/05/04 03:47:08;;;;;;;2.65;0.70;;;;;;;;;;2089567;28;20025;-72
2021/05/04 03:48:08;;;;;;;2.53;0.70;;;;;;;;;;2089752;28;20117;-75
2021/05/04 03:49:09;;;;;;;1.80;0.50;;;;;;;;;;2089811;28;20041;-71
2021/05/04 03:50:11;;;;;;;1.70;0.70;;;;;;;;;;2089594;28;20475;-73
2021/05/04 03:51:12;;;;;;;1.63;0.60;;;;;;;;;;2089673;28;20491;-73
2021/05/04 03:52:12;;;;;;;1.42;0.80;;;;;;;;;;2089839;28;20044;-73
2021/05/04 03:53:12;;;;;;;1.50;0.70;;;;;;;;;;2089868;28;20025;-73
2021/05/04 03:54:12;;;;;;;1.80;0.80;;;;;;;;;;2089756;28;20526;-74
2021/05/04 03:55:13;;;;;;;1.73;0.70;;;;;;;;;;2089368;28;20021;-74
2021/05/04 03:56:13;;;;;;;1.70;0.60;;;;;;;;;;2089696;28;20044;-75
2021/05/04 03:57:14;;;;;;;2.38;0.63;;;;;;;;;;2089673;28;20028;-75
2021/05/04 03:58:15;;;;;;;2.28;0.70;;;;;;;;;;2089738;28;20098;-75
2021/05/04 03:59:15;;;;;;;1.15;0.57;;;;;;;;;;2089622;28;20032;-76
2021/05/04 04:00:16;;;;;;;1.70;0.47;;;;;;;;;;2089550;28;20044;-75
2021/05/04 04:01:16;;;;;;;2.00;0.60;;;;;;;;;;2089704;28;20037;-75
2021/05/04 04:02:16;;;;;;;1.42;0.63;;;;;;;;;;2089473;28;20021;-75
2021/05/04 04:03:17;;;;;;;2.42;0.70;;;;;;;;;;2089638;28;20041;-75
2021/05/04 04:04:18;;;;;;;1.77;0.65;;;;;;;;;;2089434;28;20025;-76
2021/05/04 04:05:18;;;;;;;1.45;0.40;;;;;;;;;;2089651;28;20045;-76
2021/05/04 04:06:19;;;;;;;1.88;0.55;;;;;;;;;;2089646;28;20709;-75
2021/05/04 04:07:19;;;;;;;2.03;0.70;;;;;;;;;;2089624;28;20029;-75
2021/05/04 04:08:20;;;;;;;1.60;0.70;;;;;;;;;;2089553;28;20039;-75
2021/05/04 04:09:20;;;;;;;2.00;0.70;;;;;;;;;;2089191;28;20032;-74
2021/05/04 04:10:20;;;;;;;1.92;0.80;;;;;;;;;;2097164;28;20044;-74
2021/05/04 04:11:21;;;;;;;1.85;0.70;;;;;;;;;;2097318;28;20044;-74
2021/05/04 04:12:21;;;;;;;1.80;0.50;;;;;;;;;;2089666;28;20465;-72
2021/05/04 04:13:22;;;;;;;1.67;0.70;;;;;;;;;;2089505;28;20539;-74
2021/05/04 04:14:22;;;;;;;1.67;0.73;;;;;;;;;;2089551;28;20476;-75
2021/05/04 04:15:22;;;;;;;1.52;0.60;;;;;;;;;;2089623;28;20041;-74
2021/05/04 04:16:23;;;;;;;1.10;0.50;;;;;;;;;;2089548;28;20068;-70
2021/05/04 04:17:23;;;;;;;2.03;0.80;;;;;;;;;;2089193;28;20036;-71
2021/05/04 04:18:23;;;;;;;1.73;0.60;;;;;;;;;;2089680;28;20365;-73
2021/05/04 04:19:24;;;;;;;2.33;0.70;;;;;;;;;;2089152;28;20451;-71
2021/05/04 04:20:24;;;;;;;1.83;0.60;;;;;;;;;;2089531;28;20399;-74
2021/05/04 04:21:24;;;;;;;2.83;0.95;;;;;;;;;;2089402;28;20037;-74
2021/05/04 04:22:25;;;;;;;1.08;0.57;;;;;;;;;;2089510;28;20036;-74
2021/05/04 04:23:25;;;;;;;1.88;0.82;;;;;;;;;;2096962;28;20595;-74
2021/05/04 04:24:26;;;;;;;1.65;0.70;;;;;;;;;;2096957;28;20029;-74
2021/05/04 04:25:26;;;;;;;1.42;0.60;;;;;;;;;;2089487;28;20037;-74
2021/05/04 04:26:27;;;;;;;1.15;0.50;;;;;;;;;;2089563;28;20029;-75
2021/05/04 04:27:27;;;;;;;1.52;0.52;;;;;;;;;;2089430;28;20028;-73
2021/05/04 04:28:27;;;;;;;1.23;0.52;;;;;;;;;;2097046;28;20039;-75
2021/05/04 04:29:28;;;;;;;1.38;0.60;;;;;;;;;;2097054;28;20029;-73
2021/05/04 04:30:28;;;;;;;1.77;0.50;;;;;;;;;;2089513;28;20032;-73
2021/05/04 04:31:28;;;;;;;1.60;0.77;;;;;;;;;;2089100;28;20039;-74
2021/05/04 04:32:29;;;;;;;1.60;0.63;;;;;;;;;;2088689;28;20071;-73
2021/05/04 04:33:29;;;;;;;1.45;0.60;;;;;;;;;;2088841;28;20173;-74
2021/05/04 04:34:30;;;;;;;1.33;0.50;;;;;;;;;;2089287;28;20506;-73
2021/05/04 04:35:30;;;;;;;1.60;0.70;;;;;;;;;;2089249;28;20040;-74
2021/05/04 04:36:30;;;;;;;2.63;0.50;;;;;;;;;;2089490;28;20068;-73
2021/05/04 04:37:31;;;;;;;4.22;0.60;;;;;;;;;;2089265;28;20094;-74
2021/05/04 04:38:31;;;;;;;1.50;0.50;;;;;;;;;;2089404;28;20041;-74
2021/05/04 04:39:31;;;;;;;2.60;0.60;;;;;;;;;;2088892;28;20116;-72
2021/05/04 04:40:32;;;;;;;1.70;0.57;;;;;;;;;;2089313;28;20119;-72
2021/05/04 04:41:32;;;;;;;1.58;0.60;;;;;;;;;;2089331;28;20028;-72
2021/05/04 04:42:33;;;;;;;3.08;0.82;;;;;;;;;;2089483;28;20040;-72
2021/05/04 04:43:33;;;;;;;1.33;0.57;;;;;;;;;;2089367;28;20435;-78
2021/05/04 04:44:33;;;;;;;3.35;0.82;;;;;;;;;;2089267;28;20369;-74
2021/05/04 04:45:34;;;;;;;2.53;0.50;;;;;;;;;;2089318;28;20067;-73
2021/05/04 04:46:40;;;;;;;7.57;1.10;;;;;;;;;;2089141;28;20040;-72
2021/05/04 04:47:41;;;;;;;2.33;0.47;;;;;;;;;;2089295;28;20032;-72
2021/05/04 04:48:41;;;;;;;1.45;0.60;;;;;;;;;;2089308;28;20048;-72
2021/05/04 04:49:41;;;;;;;2.40;0.70;;;;;;;;;;2089102;28;20083;-72
2021/05/04 04:50:42;;;;;;;3.28;0.73;;;;;;;;;;2089259;28;20056;-73
2021/05/04 04:51:43;;;;;;;2.95;0.80;;;;;;;;;;2089414;28;20483;-72
2021/05/04 04:52:43;;;;;;;1.90;0.65;;;;;;;;;;2089216;28;20106;-72
2021/05/04 04:53:44;;;;;;;2.75;0.68;;;;;;;;;;2088957;28;20032;-72
2021/05/04 04:54:44;;;;;;;2.92;0.60;;;;;;;;;;2089257;28;20120;-72
2021/05/04 04:55:44;;;;;;;2.78;0.57;;;;;;;;;;2089313;28;20033;-71
2021/05/04 04:56:44;;;;;;;2.75;0.52;;;;;;;;;;2089231;28;20472;-71
2021/05/04 04:57:45;;;;;;;1.58;0.60;;;;;;;;;;2089149;28;20028;-71
2021/05/04 04:58:45;;;;;;;2.42;0.80;;;;;;;;;;2089329;28;20111;-73
2021/05/04 04:59:46;;;;;;;3.22;0.90;;;;;;;;;;2089184;28;20422;-73
2021/05/04 05:00:46;;;;;;;4.68;0.80;;;;;;;;;;2089192;28;20522;-74
2021/05/04 05:01:46;;;;;;;2.10;0.75;;;;;;;;;;2088949;28;20044;-75
2021/05/04 05:02:47;;;;;;;3.28;0.60;;;;;;;;;;2096927;28;20590;-76
2021/05/04 05:03:47;;;;;;;4.18;0.90;;;;;;;;;;2096890;28;20372;-71
2021/05/04 05:04:48;;;;;;;4.22;0.68;;;;;;;;;;2089196;28;20115;-71
2021/05/04 05:05:48;;;;;;;6.32;0.73;;;;;;;;;;2089129;28;20515;-71
2021/05/04 05:06:48;;;;;;;3.30;0.90;;;;;;;;;;2089193;28;20033;-71
2021/05/04 05:07:49;;;;;;;2.80;0.80;;;;;;;;;;2089289;28;20059;-71
2021/05/04 05:08:49;;;;;;;2.70;0.70;;;;;;;;;;2088997;28;20396;-71
2021/05/04 05:09:50;;;;;;;3.72;0.98;;;;;;;;;;2089133;28;20079;-71
2021/05/04 05:10:50;;;;;;;2.00;0.90;;;;;;;;;;2088448;28;20045;-71
2021/05/04 05:11:50;;;;;;;1.67;0.77;;;;;;;;;;2088646;28;20124;-73
2021/05/04 05:12:51;;;;;;;8.00;1.05;;;;;;;;;;2089016;28;20036;-79
2021/05/04 05:13:51;;;;;;;4.80;0.80;;;;;;;;;;2089202;28;20049;-76
2021/05/04 05:14:53;;;;;;;4.30;0.70;;;;;;;;;;2089086;28;20040;-76
2021/05/04 05:15:53;;;;;;;6.13;0.80;;;;;;;;;;2089013;28;20097;-76
2021/05/04 05:16:53;;;;;;;2.25;0.80;;;;;;;;;;2096667;28;20507;-76
2021/05/04 05:17:54;;;;;;;2.85;0.70;;;;;;;;;;2096863;28;20372;-74
2021/05/04 05:18:54;;;;;;;3.88;0.70;;;;;;;;;;2096888;28;20028;-77
2021/05/04 05:19:54;;;;;;;3.13;1.05;;;;;;;;;;2088758;28;20480;-75
2021/05/04 05:20:55;;;;;;;3.38;0.93;;;;;;;;;;2089076;28;20400;-76
2021/05/04 05:21:55;;;;;;;3.30;0.63;;;;;;;;;;2089136;28;20036;-75
2021/05/04 05:22:56;;;;;;;1.75;0.60;;;;;;;;;;2089227;28;20049;-75
2021/05/04 05:23:57;;;;;;;2.80;0.98;;;;;;;;;;2088651;28;20040;-75
2021/05/04 05:24:58;;;;;;;2.03;0.80;;;;;;;;;;2089199;28;20413;-75
2021/05/04 05:26:01;;;;;;;2.53;0.80;;;;;;;;;;2089252;28;20045;-73
2021/05/04 05:27:02;;;;;;;4.30;0.80;;;;;;;;;;2089228;28;20083;-76
2021/05/04 05:28:02;;;;;;;1.92;0.60;;;;;;;;;;2088975;28;20122;-77
2021/05/04 05:29:03;;;;;;;1.60;0.68;;;;;;;;;;2089157;28;20040;-75
2021/05/04 05:30:09;;;;;;;2.13;0.70;;;;;;;;;;2089176;28;20029;-75
2021/05/04 05:31:10;;;;;;;3.88;1.10;;;;;;;;;;2088733;28;20033;-74
2021/05/04 05:32:10;;;;;;;2.35;0.82;;;;;;;;;;2088999;28;20103;-73
2021/05/04 05:33:10;;;;;;;2.15;0.77;;;;;;;;;;2089216;28;20044;-75
2021/05/04 05:34:11;;;;;;;1.30;0.50;;;;;;;;;;2089168;28;20025;-75
2021/05/04 05:35:11;;;;;;;2.72;1.05;;;;;;;;;;2088870;28;20045;-75
2021/05/04 05:36:11;;;;;;;1.75;0.70;;;;;;;;;;2089072;28;20086;-76
2021/05/04 05:37:12;;;;;;;1.67;0.80;;;;;;;;;;2089094;28;20073;-77
2021/05/04 05:38:12;;;;;;;1.58;0.77;;;;;;;;;;2088718;28;20053;-74
2021/05/04 05:39:13;;;;;;;1.88;0.60;;;;;;;;;;2089125;28;20477;-77
2021/05/04 05:40:13;;;;;;;1.13;0.60;;;;;;;;;;2089076;28;20025;-76
2021/05/04 05:41:13;;;;;;;3.92;0.65;;;;;;;;;;2088947;28;20540;-77
2021/05/04 05:42:14;;;;;;;1.77;0.68;;;;;;;;;;2089079;28;20418;-77
2021/05/04 05:43:14;;;;;;;2.00;0.70;;;;;;;;;;2089167;28;20029;-76
2021/05/04 05:44:15;;;;;;;1.25;0.52;;;;;;;;;;2089069;28;20468;-74
2021/05/04 05:45:15;;;;;;;1.58;0.70;;;;;;;;;;2089074;28;20044;-77
2021/05/04 05:46:15;;;;;;;1.20;0.50;;;;;;;;;;2088785;28;20550;-76
2021/05/04 05:47:16;;;;;;;1.45;0.70;;;;;;;;;;2089105;28;20029;-76
2021/05/04 05:48:16;;;;;;;2.33;0.70;;;;;;;;;;2089183;28;20111;-77
2021/05/04 05:49:17;;;;;;;1.83;0.80;;;;;;;;;;2088172;28;20482;-76
2021/05/04 05:50:17;;;;;;;1.73;0.70;;;;;;;;;;2088489;28;20071;-76
2021/05/04 05:51:18;;;;;;;1.33;0.63;;;;;;;;;;2096545;28;20068;-75
2021/05/04 05:52:18;;;;;;;1.75;0.77;;;;;;;;;;2096730;28;20024;-77
2021/05/04 05:53:19;;;;;;;1.17;0.60;;;;;;;;;;2086812;28;20068;-77
2021/05/04 05:54:19;;;;;;;0.93;0.47;;;;;;;;;;2088984;28;20376;-77
2021/05/04 05:55:19;;;;;;;1.50;0.60;;;;;;;;;;2089056;28;20025;-78
2021/05/04 05:56:20;;;;;;;3.33;0.65;;;;;;;;;;2089072;28;20099;-77
2021/05/04 05:57:20;;;;;;;2.22;0.68;;;;;;;;;;2089064;28;20021;-79
2021/05/04 05:58:21;;;;;;;1.83;0.60;;;;;;;;;;2089064;28;20104;-79
2021/05/04 05:59:21;;;;;;;2.42;0.82;;;;;;;;;;2088957;28;20044;-76
2021/05/04 06:00:21;;;;;;;1.17;0.50;;;;;;;;;;2089157;28;20241;-77
2021/05/04 06:01:22;;;;;;;1.25;0.60;;;;;;;;;;2090476;28;20091;-75
2021/05/04 06:02:22;;;;;;;1.83;0.57;;;;;;;;;;2090718;28;20082;-76
2021/05/04 06:03:23;;;;;;;1.98;0.60;;;;;;;;;;2090487;28;20534;-76